Time;durP1;ratioP1;P1;durP2;ratioP2;P2;SDS_P1;SDS_P2;PMS_P1;PMS_P2;Temp;Humidity;BMP_temperature;BMP_pressure;BME280_temperature;BME280_humidity;BME280_pressure;Samples;Min_cycle;Max_cycle;Signal;HPM_P1;HPM_P2
2022/10/18 00:00:36;;;;;;;;;14.00;10.00;;;;;19.32;79.22;101921.44;5116574;27;46385;-69
2022/10/18 00:03:02;;;;;;;;;13.67;9.67;;;;;19.17;79.03;101892.38;5111808;27;45245;-69
2022/10/18 00:05:27;;;;;;;;;11.33;9.00;;;;;19.21;79.35;101894.22;5119445;27;45548;-69
2022/10/18 00:07:52;;;;;;;;;6.33;4.67;;;;;19.28;79.46;101909.63;5128137;27;51476;-69
2022/10/18 00:10:18;;;;;;;;;12.67;9.00;;;;;19.33;79.27;101915.09;5111201;27;60584;-69
2022/10/18 00:12:43;;;;;;;;;9.00;9.00;;;;;19.34;79.08;101923.25;5118514;27;45115;-69
2022/10/18 00:15:09;;;;;;;;;10.67;7.67;;;;;19.33;78.75;101916.00;5122061;27;49718;-70
2022/10/18 00:17:36;;;;;;;;;8.67;7.00;;;;;19.33;78.55;101929.56;5113035;27;44871;-69
2022/10/18 00:20:03;;;;;;;;;6.33;6.33;;;;;19.28;78.13;101920.47;5111086;27;45150;-70
2022/10/18 00:22:28;;;;;;;;;8.00;6.67;;;;;19.38;78.76;101934.13;5114074;27;45144;-69
2022/10/18 00:24:53;;;;;;;;;8.00;8.00;;;;;19.25;78.54;101925.88;5114601;27;46676;-69
2022/10/18 00:27:19;;;;;;;;;14.33;9.67;;;;;19.33;78.63;101937.69;5114574;27;45373;-69
2022/10/18 00:29:44;;;;;;;;;6.00;6.00;;;;;19.22;78.54;101928.56;5119638;27;45208;-70
2022/10/18 00:32:11;;;;;;;;;9.00;7.00;;;;;19.25;78.75;101939.41;5113931;27;45267;-70
2022/10/18 00:34:38;;;;;;;;;10.67;7.00;;;;;19.26;78.87;101943.94;5117792;27;45713;-70
2022/10/18 00:37:03;;;;;;;;;12.67;11.00;;;;;19.21;78.67;101926.75;5119249;27;46217;-70
2022/10/18 00:39:29;;;;;;;;;10.00;9.00;;;;;19.19;78.59;101920.41;5116560;27;45408;-70
2022/10/18 00:41:54;;;;;;;;;10.00;7.33;;;;;19.26;78.68;101924.09;5114454;27;45433;-70
2022/10/18 00:44:19;;;;;;;;;8.33;8.33;;;;;19.29;78.74;101921.41;5120599;27;45534;-70
2022/10/18 00:46:48;;;;;;;;;8.67;8.67;;;;;19.21;79.03;101913.19;5111198;27;45150;-70
2022/10/18 00:49:18;;;;;;;;;7.00;7.00;;;;;19.26;78.50;101927.69;5116244;27;45116;-70
2022/10/18 00:51:55;;;;;;;;;9.00;8.00;;;;;19.26;78.44;101927.69;5112999;27;45222;-70
2022/10/18 00:54:22;;;;;;;;;8.67;8.33;;;;;19.31;78.31;101944.91;5113202;27;45323;-70
2022/10/18 00:56:47;;;;;;;;;10.67;8.00;;;;;19.33;78.53;101942.22;5112488;27;44958;-69
2022/10/18 00:59:15;;;;;;;;;14.00;9.67;;;;;19.31;78.36;101936.78;5113763;27;45285;-69
2022/10/18 01:01:40;;;;;;;;;6.67;6.67;;;;;19.34;78.26;101944.94;5109892;27;45111;-69
2022/10/18 01:04:06;;;;;;;;;8.00;7.33;;;;;19.35;78.19;101945.81;5106917;27;46900;-69
2022/10/18 01:06:40;;;;;;;;;10.67;8.67;;;;;19.36;78.15;101941.34;5115064;27;44890;-70
2022/10/18 01:09:20;;;;;;;;;9.00;7.00;;;;;19.33;78.05;101948.53;5115753;27;45115;-69
2022/10/18 01:12:08;;;;;;;;;12.33;9.33;;;;;19.31;78.02;101955.75;5110445;27;45401;-70
2022/10/18 01:15:00;;;;;;;;;7.67;5.67;;;;;19.30;78.47;101947.59;5108655;27;45627;-69
2022/10/18 01:17:36;;;;;;;;;9.33;7.67;;;;;19.14;78.42;101927.59;5108386;27;45092;-70
2022/10/18 01:20:04;;;;;;;;;8.00;8.00;;;;;19.30;78.66;101953.94;5113552;27;45155;-69
2022/10/18 01:22:36;;;;;;;;;10.67;8.00;;;;;19.33;78.53;101963.88;5121657;27;45178;-69
2022/10/18 01:25:28;;;;;;;;;8.00;7.33;;;;;19.33;78.24;101961.19;5117361;27;45252;-69
2022/10/18 01:28:11;;;;;;;;;9.67;9.67;;;;;19.32;78.31;101954.84;5096463;27;45737;-69
2022/10/18 01:30:40;;;;;;;;;13.33;6.33;;;;;19.32;78.42;101953.97;5116244;27;45670;-69
2022/10/18 01:33:14;;;;;;;;;9.33;8.00;;;;;19.33;78.35;101953.94;5115289;27;45081;-69
2022/10/18 01:35:45;;;;;;;;;7.67;7.33;;;;;19.27;78.18;101940.38;5111210;27;45243;-69
2022/10/18 01:38:16;;;;;;;;;10.33;9.33;;;;;19.02;78.22;101895.84;5112250;27;45211;-69
2022/10/18 01:40:44;;;;;;;;;6.67;6.67;;;;;19.33;78.16;101964.78;5112046;27;45072;-70
2022/10/18 01:43:11;;;;;;;;;13.33;7.67;;;;;19.24;78.19;101937.63;5106758;27;44946;-71
2022/10/18 01:45:36;;;;;;;;;8.67;7.00;;;;;19.23;78.21;101943.91;5107794;27;45272;-71
2022/10/18 01:48:02;;;;;;;;;8.33;8.33;;;;;19.36;78.12;101958.50;5111718;27;45039;-69
2022/10/18 01:50:30;;;;;;;;;9.00;8.00;;;;;19.37;77.85;101965.75;5114450;27;45151;-69
2022/10/18 01:52:56;;;;;;;;;9.33;8.67;;;;;19.33;77.43;101962.06;5121591;27;45202;-68
2022/10/18 01:55:28;;;;;;;;;9.00;9.00;;;;;19.36;77.62;101954.88;5118519;27;45663;-69
2022/10/18 01:58:19;;;;;;;;;6.67;6.67;;;;;19.32;77.60;101946.72;5122501;27;45064;-71
2022/10/18 02:00:53;;;;;;;;;7.00;7.00;;;;;19.22;77.57;101925.88;5119252;27;45382;-69
2022/10/18 02:03:26;;;;;;;;;7.00;4.00;;;;;19.28;77.79;101938.56;5101968;27;45143;-69
2022/10/18 02:06:12;;;;;;;;;11.33;9.33;;;;;19.10;77.36;101918.50;5126970;27;46275;-68
2022/10/18 02:08:45;;;;;;;;;10.00;9.67;;;;;19.24;77.87;101940.31;5114714;27;45257;-68
2022/10/18 02:11:14;;;;;;;;;9.00;9.00;;;;;19.14;77.42;101928.50;5103293;27;45004;-68
2022/10/18 02:13:51;;;;;;;;;10.67;9.67;;;;;19.21;77.60;101945.72;5112620;27;45340;-70
2022/10/18 02:16:42;;;;;;;;;7.00;7.00;;;;;19.18;77.76;101950.19;5115811;27;45559;-69
2022/10/18 02:19:18;;;;;;;;;8.00;8.00;;;;;19.14;77.87;101946.56;5121198;27;45117;-71
2022/10/18 02:21:46;;;;;;;;;7.67;7.33;;;;;19.11;77.87;101952.84;5125570;27;45159;-71
2022/10/18 02:24:14;;;;;;;;;10.33;8.33;;;;;19.09;78.38;101953.69;5118606;27;45120;-70
2022/10/18 02:26:39;;;;;;;;;10.67;8.33;;;;;18.95;78.62;101930.09;5128141;27;45290;-69
2022/10/18 02:29:05;;;;;;;;;9.67;8.00;;;;;18.85;78.66;101913.75;5121188;27;45781;-70
2022/10/18 02:31:38;;;;;;;;;11.67;10.33;;;;;19.03;78.71;101940.13;5130757;27;45160;-70
2022/10/18 02:34:20;;;;;;;;;9.67;8.67;;;;;19.02;78.75;101947.31;5119415;27;45253;-69
2022/10/18 02:36:59;;;;;;;;;11.00;10.33;;;;;19.07;78.70;101955.50;5113368;27;46057;-71
2022/10/18 02:39:32;;;;;;;;;9.33;6.67;;;;;19.08;79.13;101962.75;5117587;27;45102;-69
2022/10/18 02:41:58;;;;;;;;;9.67;8.33;;;;;19.09;78.80;101967.25;5118977;27;45154;-69
2022/10/18 02:44:24;;;;;;;;;9.00;7.33;;;;;19.00;78.77;101945.50;5112995;27;45307;-69
2022/10/18 02:46:50;;;;;;;;;10.00;9.67;;;;;19.07;78.97;101961.84;5116202;27;46091;-69
2022/10/18 02:49:15;;;;;;;;;12.00;12.00;;;;;19.11;78.81;101981.75;5127413;27;45108;-69
2022/10/18 02:51:41;;;;;;;;;11.33;11.00;;;;;19.11;78.84;101979.94;5114943;27;45046;-68
2022/10/18 02:54:07;;;;;;;;;14.67;12.00;;;;;19.11;78.72;101973.59;5127638;27;45062;-69
2022/10/18 02:56:33;;;;;;;;;12.33;11.00;;;;;19.11;78.57;101982.63;5122190;27;46487;-69
2022/10/18 02:58:58;;;;;;;;;10.00;8.33;;;;;19.07;78.59;101971.75;5113190;27;45131;-69
2022/10/18 03:01:23;;;;;;;;;13.00;10.00;;;;;19.07;78.70;101975.38;5121126;27;45345;-69
2022/10/18 03:03:49;;;;;;;;;12.67;10.67;;;;;19.06;78.93;101984.38;5125258;27;45893;-69
2022/10/18 03:06:14;;;;;;;;;13.67;12.00;;;;;19.07;79.07;101982.56;5129672;27;45220;-70
2022/10/18 03:08:39;;;;;;;;;11.67;9.33;;;;;19.11;78.92;101979.03;5108218;27;57292;-70
2022/10/18 03:11:05;;;;;;;;;10.67;10.67;;;;;19.10;79.00;101980.81;5123433;27;49477;-70
2022/10/18 03:13:32;;;;;;;;;23.00;20.00;;;;;19.03;79.33;101968.09;5118246;27;45125;-70
2022/10/18 03:15:58;;;;;;;;;16.00;13.67;;;;;18.87;79.32;101948.06;5127275;27;45873;-70
2022/10/18 03:18:23;;;;;;;;;14.00;12.67;;;;;18.96;79.40;101964.41;5125529;27;44930;-70
2022/10/18 03:20:49;;;;;;;;;18.00;13.33;;;;;19.04;79.20;101980.75;5118836;27;58156;-70
2022/10/18 03:23:14;;;;;;;;;15.67;13.33;;;;;19.05;79.42;101993.41;5110670;27;53403;-70
2022/10/18 03:25:39;;;;;;;;;13.67;13.67;;;;;19.06;79.04;101997.03;5118311;27;53111;-70
2022/10/18 03:28:04;;;;;;;;;16.67;15.67;;;;;18.93;79.49;101982.44;5119397;27;61580;-69
2022/10/18 03:30:30;;;;;;;;;18.33;15.00;;;;;19.10;79.46;102013.31;5110564;27;46028;-70
2022/10/18 03:32:55;;;;;;;;;13.00;10.67;;;;;19.10;79.37;102010.59;5110558;27;45212;-70
2022/10/18 03:35:21;;;;;;;;;16.67;13.33;;;;;19.09;78.92;102007.88;5120185;27;45231;-70
2022/10/18 03:37:47;;;;;;;;;12.33;12.33;;;;;19.04;79.21;102010.56;5117768;27;45164;-70
2022/10/18 03:40:12;;;;;;;;;15.00;12.33;;;;;19.04;79.23;102015.97;5110706;27;45166;-70
2022/10/18 03:42:37;;;;;;;;;10.33;10.33;;;;;19.04;79.13;102013.25;5117200;27;45120;-70
2022/10/18 03:45:03;;;;;;;;;13.67;12.67;;;;;19.07;79.22;102012.38;5119718;27;49577;-70
2022/10/18 03:47:29;;;;;;;;;17.33;14.33;;;;;18.84;78.78;101975.13;5119511;27;45848;-70
2022/10/18 03:49:54;;;;;;;;;11.00;11.00;;;;;18.92;78.87;101992.38;5119743;27;45337;-70
2022/10/18 03:52:19;;;;;;;;;10.00;9.33;;;;;19.05;78.87;102014.16;5121238;27;51551;-70
2022/10/18 03:54:44;;;;;;;;;12.33;12.33;;;;;19.03;78.77;102007.81;5098066;27;46243;-70
2022/10/18 03:57:10;;;;;;;;;10.33;10.33;;;;;18.95;78.87;102016.75;5118048;27;65183;-70
2022/10/18 03:59:35;;;;;;;;;14.33;12.67;;;;;18.95;78.70;102014.03;5110783;27;55563;-70
2022/10/18 04:02:00;;;;;;;;;7.00;7.00;;;;;18.92;78.97;102022.16;5119666;27;45103;-70
2022/10/18 04:04:25;;;;;;;;;14.00;10.33;;;;;18.90;78.88;102025.72;5126306;27;57671;-70
2022/10/18 04:06:51;;;;;;;;;12.00;10.67;;;;;18.87;78.82;102032.00;5121476;27;60108;-70
2022/10/18 04:09:16;;;;;;;;;10.33;9.67;;;;;18.65;79.02;102000.09;5129138;27;46341;-70
2022/10/18 04:11:41;;;;;;;;;13.00;11.00;;;;;18.82;79.33;102038.22;5120828;27;45080;-70
2022/10/18 04:14:07;;;;;;;;;15.00;13.67;;;;;18.82;79.23;102035.50;5120600;27;60689;-70
2022/10/18 04:16:32;;;;;;;;;15.00;11.33;;;;;18.80;79.17;102038.19;5121720;27;45012;-70
2022/10/18 04:18:57;;;;;;;;;12.33;10.67;;;;;18.63;79.19;102020.81;5111098;27;45112;-71
2022/10/18 04:21:23;;;;;;;;;13.67;11.67;;;;;18.73;79.26;102041.72;5117207;27;54825;-70
2022/10/18 04:23:49;;;;;;;;;19.00;13.67;;;;;18.70;79.38;102038.97;5112853;27;45580;-70
2022/10/18 04:26:15;;;;;;;;;14.33;12.33;;;;;18.36;79.11;101965.44;5100549;27;45250;-70
2022/10/18 04:28:41;;;;;;;;;11.67;10.67;;;;;18.60;79.11;102022.59;5116356;27;45176;-70
2022/10/18 04:31:07;;;;;;;;;16.33;11.33;;;;;18.53;79.22;101999.06;5125320;27;45471;-70
2022/10/18 04:33:33;;;;;;;;;9.33;9.33;;;;;18.64;78.90;102022.63;5120111;27;45589;-70
2022/10/18 04:35:58;;;;;;;;;12.00;10.67;;;;;18.67;79.18;102025.38;5120799;27;44954;-70
2022/10/18 04:38:23;;;;;;;;;11.67;9.67;;;;;18.67;79.21;102026.28;5126713;27;55923;-70
2022/10/18 04:40:49;;;;;;;;;10.00;10.00;;;;;18.69;79.19;102023.59;5119209;27;47703;-70
2022/10/18 04:43:14;;;;;;;;;11.00;11.00;;;;;18.62;78.88;102014.50;5119954;27;45203;-70
2022/10/18 04:45:40;;;;;;;;;13.67;12.00;;;;;18.37;79.31;101980.78;5117933;27;45146;-70
2022/10/18 04:48:06;;;;;;;;;15.00;15.00;;;;;18.42;79.61;102009.72;5111604;27;45847;-70
2022/10/18 04:50:31;;;;;;;;;12.67;11.67;;;;;18.56;79.53;102028.88;5118471;27;45041;-70
2022/10/18 04:52:56;;;;;;;;;10.67;10.67;;;;;18.59;79.44;102034.31;5112712;27;66210;-70
2022/10/18 04:55:21;;;;;;;;;14.00;13.33;;;;;18.52;79.40;102027.00;5118364;27;55654;-70
2022/10/18 04:57:47;;;;;;;;;15.33;11.67;;;;;18.49;79.32;102037.78;5124722;27;45023;-70
2022/10/18 05:00:12;;;;;;;;;13.67;13.00;;;;;18.51;79.86;102046.84;5109981;27;45096;-70
2022/10/18 05:02:38;;;;;;;;;20.00;15.33;;;;;18.49;79.77;102047.69;5111515;27;45254;-70
2022/10/18 05:05:03;;;;;;;;;10.67;10.67;;;;;18.47;79.74;102044.97;5122372;27;44925;-70
2022/10/18 05:07:29;;;;;;;;;13.33;9.67;;;;;18.42;79.55;102035.88;5105902;27;45297;-70
2022/10/18 05:09:54;;;;;;;;;11.67;10.67;;;;;18.47;79.47;102053.09;5119360;27;45067;-70
2022/10/18 05:12:21;;;;;;;;;12.00;10.67;;;;;18.44;79.68;102049.44;5113707;27;45544;-70
2022/10/18 05:14:46;;;;;;;;;15.00;14.00;;;;;18.46;79.75;102053.06;5123996;27;45037;-70
2022/10/18 05:17:11;;;;;;;;;13.33;12.33;;;;;18.42;79.66;102055.72;5121486;27;45162;-70
2022/10/18 05:19:36;;;;;;;;;20.67;18.67;;;;;18.00;79.75;101997.38;5116804;27;45130;-69
2022/10/18 05:22:02;;;;;;;;;11.33;10.67;;;;;18.41;79.95;102053.91;5105255;27;55196;-70
2022/10/18 05:24:27;;;;;;;;;15.00;13.67;;;;;18.40;79.69;102062.00;5117501;27;61178;-70
2022/10/18 05:26:52;;;;;;;;;13.00;11.67;;;;;18.25;79.84;102038.34;5108100;27;45155;-70
2022/10/18 05:29:18;;;;;;;;;11.00;10.00;;;;;18.37;79.91;102054.75;5104380;27;45337;-70
2022/10/18 05:31:43;;;;;;;;;12.00;12.00;;;;;18.38;79.75;102055.66;5107614;27;66402;-70
2022/10/18 05:34:08;;;;;;;;;11.00;8.67;;;;;18.32;79.74;102040.22;5116143;27;45334;-70
2022/10/18 05:36:34;;;;;;;;;10.33;8.67;;;;;18.38;79.44;102051.16;5124055;27;45083;-70
2022/10/18 05:39:02;;;;;;;;;11.00;9.00;;;;;18.39;79.33;102052.06;5112605;27;45444;-70
2022/10/18 05:41:27;;;;;;;;;9.67;9.33;;;;;18.38;79.22;102044.84;5117162;27;45888;-70
2022/10/18 05:43:53;;;;;;;;;10.00;10.00;;;;;18.42;79.20;102049.41;5110811;27;45150;-70
2022/10/18 05:46:18;;;;;;;;;12.33;8.67;;;;;18.29;79.51;102021.25;5118829;27;44999;-70
2022/10/18 05:48:48;;;;;;;;;11.00;9.67;;;;;18.46;79.30;102048.53;5111739;27;45188;-70
2022/10/18 05:51:14;;;;;;;;;9.00;9.00;;;;;18.48;79.25;102053.97;5112408;27;45378;-70
2022/10/18 05:53:39;;;;;;;;;13.33;13.00;;;;;18.52;79.03;102058.56;5111024;27;61648;-70
2022/10/18 05:56:06;;;;;;;;;13.00;10.33;;;;;18.49;79.10;102058.53;5122299;27;45158;-70
2022/10/18 05:58:31;;;;;;;;;32.33;31.33;;;;;18.33;78.98;102033.94;5119762;27;45219;-69
2022/10/18 06:01:01;;;;;;;;;10.67;9.33;;;;;18.47;79.00;102066.63;5114212;27;46120;-69
2022/10/18 06:03:29;;;;;;;;;16.00;13.00;;;;;18.45;79.21;102067.50;5113074;27;45099;-69
2022/10/18 06:06:04;;;;;;;;;9.33;9.33;;;;;18.49;78.71;102066.63;5112696;27;44911;-69
2022/10/18 06:08:29;;;;;;;;;12.33;10.00;;;;;18.44;78.42;102066.56;5117544;27;45044;-70
2022/10/18 06:10:55;;;;;;;;;7.00;7.00;;;;;18.39;78.53;102054.75;5104968;27;46015;-69
2022/10/18 06:13:20;;;;;;;;;9.33;8.67;;;;;18.15;78.60;102015.66;5109095;27;44972;-69
2022/10/18 06:15:46;;;;;;;;;10.67;10.33;;;;;18.46;79.14;102075.59;5108427;27;44966;-69
2022/10/18 06:18:11;;;;;;;;;12.67;11.33;;;;;18.47;78.98;102073.84;5108554;27;45371;-69
2022/10/18 06:20:36;;;;;;;;;11.33;9.33;;;;;18.48;79.25;102071.16;5080988;27;67014;-69
2022/10/18 06:23:01;;;;;;;;;12.67;11.67;;;;;18.55;78.67;102081.16;5112499;27;45129;-69
2022/10/18 06:25:27;;;;;;;;;9.33;9.33;;;;;18.47;78.38;102066.63;5110262;27;48643;-69
2022/10/18 06:27:52;;;;;;;;;14.33;12.33;;;;;18.17;78.65;102019.28;5113842;27;48474;-69
2022/10/18 06:30:17;;;;;;;;;13.00;10.00;;;;;18.56;78.40;102082.06;5114537;27;46021;-69
2022/10/18 06:32:43;;;;;;;;;16.00;13.00;;;;;18.61;78.10;102091.19;5099228;27;45090;-70
2022/10/18 06:35:08;;;;;;;;;14.67;11.67;;;;;18.57;78.12;102095.63;5115859;27;45105;-69
2022/10/18 06:37:34;;;;;;;;;13.33;12.00;;;;;18.60;78.38;102097.47;5122361;27;44969;-69
2022/10/18 06:39:59;;;;;;;;;10.67;10.67;;;;;18.63;77.93;102097.53;5112605;27;45545;-69
2022/10/18 06:42:24;;;;;;;;;14.67;14.00;;;;;18.64;77.63;102102.03;5118626;27;45254;-69
2022/10/18 06:44:50;;;;;;;;;10.33;7.00;;;;;18.63;77.57;102097.53;5108988;27;45503;-69
2022/10/18 06:47:15;;;;;;;;;11.00;9.67;;;;;18.64;77.65;102093.03;5118851;27;51883;-69
2022/10/18 06:49:40;;;;;;;;;14.00;9.33;;;;;18.64;77.84;102095.72;5113578;27;57461;-69
2022/10/18 06:52:06;;;;;;;;;10.33;9.00;;;;;18.64;77.85;102096.63;5115074;27;45103;-69
2022/10/18 06:54:32;;;;;;;;;14.00;10.00;;;;;18.63;77.65;102096.59;5122635;27;45374;-70
2022/10/18 06:56:57;;;;;;;;;10.67;9.67;;;;;18.63;77.94;102100.25;5122569;27;45296;-69
2022/10/18 06:59:23;;;;;;;;;12.67;10.67;;;;;18.67;77.57;102106.59;5118612;27;45682;-69
2022/10/18 07:01:48;;;;;;;;;8.33;8.33;;;;;18.69;77.66;102110.25;5114115;27;45217;-70
2022/10/18 07:04:13;;;;;;;;;9.33;7.33;;;;;18.68;77.29;102116.56;5115773;27;56918;-70
2022/10/18 07:06:39;;;;;;;;;13.33;12.00;;;;;18.73;77.54;102107.59;5105430;27;45474;-69
2022/10/18 07:09:04;;;;;;;;;13.00;9.00;;;;;18.70;77.15;102095.81;5096093;27;45996;-70
2022/10/18 07:11:29;;;;;;;;;10.33;7.67;;;;;18.71;76.77;102105.75;5129121;27;44953;-70
2022/10/18 07:14:03;;;;;;;;;11.33;8.33;;;;;18.84;76.75;102110.50;5111074;27;45451;-70
2022/10/18 07:16:30;;;;;;;;;4.33;4.33;;;;;18.74;76.95;102097.66;5112671;27;45434;-69
2022/10/18 07:18:56;;;;;;;;;8.33;8.33;;;;;18.88;76.77;102116.88;5106124;27;45947;-70
2022/10/18 07:21:24;;;;;;;;;11.00;9.67;;;;;18.78;76.70;102097.75;5115759;27;45340;-70
2022/10/18 07:23:50;;;;;;;;;6.67;6.67;;;;;18.94;76.48;102125.06;5110763;27;45542;-70
2022/10/18 07:26:30;;;;;;;;;9.00;7.67;;;;;19.00;76.11;102127.88;5112738;27;45525;-70
2022/10/18 07:29:10;;;;;;;;;8.33;8.33;;;;;18.99;76.24;102120.66;5110528;27;46287;-69
2022/10/18 07:31:40;;;;;;;;;9.33;7.00;;;;;19.02;76.11;102133.31;5114690;27;45449;-70
2022/10/18 07:34:06;;;;;;;;;17.67;14.00;;;;;19.00;76.06;102118.84;5085573;27;45698;-69
2022/10/18 07:36:32;;;;;;;;;8.33;7.67;;;;;18.94;75.97;102106.09;5125769;27;45419;-70
2022/10/18 07:38:58;;;;;;;;;14.00;10.00;;;;;19.04;75.47;102120.69;5096991;27;45366;-70
2022/10/18 07:41:24;;;;;;;;;26.00;21.00;;;;;19.19;75.53;102137.16;5108308;27;45298;-70
2022/10/18 07:43:50;;;;;;;;;13.67;11.00;;;;;19.22;75.01;102137.19;5097285;27;45608;-70
2022/10/18 07:46:18;;;;;;;;;16.67;10.33;;;;;19.13;74.68;102113.59;5112522;27;45507;-70
2022/10/18 07:48:43;;;;;;;;;8.67;7.33;;;;;19.07;74.28;102116.25;5114513;27;46287;-69
2022/10/18 07:51:09;;;;;;;;;8.00;8.00;;;;;19.13;74.41;102126.22;5110666;27;45356;-70
2022/10/18 07:53:35;;;;;;;;;11.00;9.00;;;;;19.28;74.15;102158.94;5089892;27;45338;-70
2022/10/18 07:56:06;;;;;;;;;13.67;12.00;;;;;19.29;73.78;102157.16;5109830;27;45315;-70
2022/10/18 07:58:33;;;;;;;;;10.00;7.00;;;;;19.26;73.80;102165.25;5097670;27;46212;-72
2022/10/18 08:01:03;;;;;;;;;6.33;6.33;;;;;19.20;73.86;102141.66;5110704;27;45453;-70
2022/10/18 08:03:28;;;;;;;;;7.00;6.00;;;;;19.22;73.66;102158.88;5095320;27;45452;-70
2022/10/18 08:05:54;;;;;;;;;11.00;8.33;;;;;19.27;74.00;102164.34;5113120;27;45250;-70
2022/10/18 08:08:20;;;;;;;;;6.00;5.67;;;;;19.29;73.65;102173.41;5111728;27;45412;-70
2022/10/18 08:10:46;;;;;;;;;7.00;6.00;;;;;19.27;73.52;102165.25;5114436;27;45496;-70
2022/10/18 08:13:11;;;;;;;;;8.33;6.00;;;;;19.31;73.95;102172.53;5112761;27;45673;-70
2022/10/18 08:15:37;;;;;;;;;5.00;5.00;;;;;19.37;73.80;102176.19;5098708;27;45364;-70
2022/10/18 08:18:02;;;;;;;;;7.00;7.00;;;;;19.30;73.49;102164.38;5112160;27;45479;-70
2022/10/18 08:20:29;;;;;;;;;6.33;5.33;;;;;19.36;73.14;102187.97;5108322;27;45307;-70
2022/10/18 08:22:54;;;;;;;;;5.33;4.00;;;;;19.30;73.11;102191.47;5105791;27;45574;-70
2022/10/18 08:25:20;;;;;;;;;9.00;6.00;;;;;18.94;73.13;102126.00;5110079;27;45514;-70
2022/10/18 08:27:45;;;;;;;;;8.33;7.67;;;;;19.29;73.00;102179.75;5115184;27;46884;-70
2022/10/18 08:30:11;;;;;;;;;12.50;12.50;;;;;19.33;73.00;102196.94;5083884;27;45532;-70
2022/10/18 08:32:36;;;;;;;;;6.00;4.33;;;;;19.24;73.19;102191.41;5094642;27;45460;-70
2022/10/18 08:35:01;;;;;;;;;6.00;5.00;;;;;19.26;73.37;102195.94;5114297;27;45307;-70
2022/10/18 08:37:26;;;;;;;;;5.67;4.00;;;;;19.30;73.13;102194.19;5115709;27;46095;-71
2022/10/18 08:39:52;;;;;;;;;6.33;5.00;;;;;19.34;72.88;102196.06;5110173;27;45487;-70
2022/10/18 08:42:43;;;;;;;;;5.67;5.00;;;;;19.36;72.88;102196.09;5104605;27;45328;-71
2022/10/18 08:45:11;;;;;;;;;7.00;5.33;;;;;19.41;72.58;102197.06;5105187;27;45408;-70
2022/10/18 08:47:42;;;;;;;;;5.67;5.67;;;;;19.51;72.73;102193.56;5113373;27;45824;-70
2022/10/18 08:50:17;;;;;;;;;4.33;4.33;;;;;19.51;72.06;102190.84;5117109;27;45332;-70
2022/10/18 08:52:47;;;;;;;;;9.00;6.67;;;;;19.51;72.11;102193.56;5115207;27;45259;-70
2022/10/18 08:55:25;;;;;;;;;8.33;8.33;;;;;19.47;72.33;102191.72;5104964;27;45407;-70
2022/10/18 08:57:50;;;;;;;;;16.00;11.67;;;;;19.34;72.36;102171.66;5115488;27;45820;-70
2022/10/18 09:00:21;;;;;;;;;12.67;12.67;;;;;19.46;72.23;102184.47;5116243;27;45311;-70
2022/10/18 09:03:02;;;;;;;;;7.00;6.67;;;;;19.47;72.51;102176.34;5119204;27;45507;-70
2022/10/18 09:05:34;;;;;;;;;5.00;5.00;;;;;19.53;72.29;102178.22;5117845;27;45565;-70
2022/10/18 09:08:16;;;;;;;;;6.67;5.67;;;;;19.48;72.34;102161.88;5111087;27;45664;-70
2022/10/18 09:11:02;;;;;;;;;6.33;6.00;;;;;19.57;72.31;102165.59;5103126;27;45543;-70
2022/10/18 09:13:45;;;;;;;;;10.00;7.33;;;;;19.73;71.86;102174.84;5115487;27;45262;-70
2022/10/18 09:16:16;;;;;;;;;6.33;5.00;;;;;19.77;71.32;102184.88;5094746;27;45396;-69
2022/10/18 09:19:02;;;;;;;;;4.00;4.00;;;;;19.41;70.85;102124.78;5101857;27;45428;-70
2022/10/18 09:21:45;;;;;;;;;4.33;4.33;;;;;19.78;71.19;102186.69;5101174;27;45598;-69
2022/10/18 09:24:13;;;;;;;;;12.00;11.00;;;;;19.69;71.19;102161.25;5115185;27;45338;-70
2022/10/18 09:26:52;;;;;;;;;8.33;6.67;;;;;19.77;71.02;102165.91;5112954;27;45342;-69
2022/10/18 09:29:29;;;;;;;;;5.00;4.00;;;;;19.62;70.81;102142.19;5109904;27;45476;-69
2022/10/18 09:32:22;;;;;;;;;4.00;4.00;;;;;19.86;70.81;102185.91;5119114;27;45455;-69
2022/10/18 09:35:00;;;;;;;;;3.67;2.00;;;;;19.93;70.86;102183.22;5112206;27;45559;-70
2022/10/18 09:37:31;;;;;;;;;7.33;5.00;;;;;19.98;70.54;102179.69;5117110;27;45464;-70
2022/10/18 09:40:05;;;;;;;;;7.33;6.00;;;;;20.05;70.33;102177.94;5117761;27;46342;-69
2022/10/18 09:42:36;;;;;;;;;7.00;4.00;;;;;20.06;69.92;102183.38;5101114;27;45384;-70
2022/10/18 09:45:25;;;;;;;;;5.00;5.00;;;;;20.12;69.86;102174.38;5094314;27;45418;-70
2022/10/18 09:47:56;;;;;;;;;7.33;6.00;;;;;20.19;70.03;102178.06;5093514;27;45342;-69
2022/10/18 09:50:37;;;;;;;;;6.00;6.00;;;;;20.23;69.85;102178.13;5115170;27;46249;-69
2022/10/18 09:53:16;;;;;;;;;8.67;5.67;;;;;20.28;69.63;102183.59;5103566;27;45590;-69
2022/10/18 09:56:05;;;;;;;;;7.00;6.00;;;;;20.27;69.58;102181.75;5107980;27;45392;-70
2022/10/18 09:58:50;;;;;;;;;10.33;9.67;;;;;20.28;69.46;102179.94;5092462;27;45510;-69
2022/10/18 10:01:21;;;;;;;;;11.67;10.33;;;;;20.30;69.31;102186.31;5109987;27;45412;-70
2022/10/18 10:03:47;;;;;;;;;12.67;10.33;;;;;20.30;69.91;102189.03;5108828;27;45427;-70
2022/10/18 10:06:15;;;;;;;;;6.00;6.00;;;;;19.88;69.52;102124.44;5109534;27;55873;-70
2022/10/18 10:08:52;;;;;;;;;9.33;7.67;;;;;20.27;69.75;102176.31;5114701;27;45353;-70
2022/10/18 10:11:31;;;;;;;;;8.33;8.33;;;;;20.29;69.70;102179.97;5116410;27;45798;-70
2022/10/18 10:14:07;;;;;;;;;9.00;7.67;;;;;20.19;69.09;102167.22;5105345;27;45475;-70
2022/10/18 10:16:41;;;;;;;;;6.67;6.00;;;;;20.29;68.93;102181.78;5100883;27;45555;-70
2022/10/18 10:19:15;;;;;;;;;3.00;3.00;;;;;20.28;69.08;102180.88;5088964;27;45552;-70
2022/10/18 10:21:41;;;;;;;;;10.00;7.67;;;;;20.32;68.75;102177.28;5109567;27;46879;-70
2022/10/18 10:24:23;;;;;;;;;9.00;9.00;;;;;20.37;68.78;102188.19;5108658;27;45602;-70
2022/10/18 10:26:49;;;;;;;;;8.33;7.00;;;;;20.38;68.77;102193.63;5115156;27;45599;-69
2022/10/18 10:29:37;;;;;;;;;5.00;5.00;;;;;20.40;68.97;102197.25;5115591;27;45390;-70
2022/10/18 10:32:03;;;;;;;;;3.67;3.33;;;;;20.43;68.31;102194.56;5123605;27;45639;-70
2022/10/18 10:34:29;;;;;;;;;5.67;4.67;;;;;20.45;68.49;102194.59;5114945;27;45566;-70
2022/10/18 10:36:55;;;;;;;;;5.67;5.00;;;;;20.44;68.55;102190.97;5118450;27;45466;-70
2022/10/18 10:39:23;;;;;;;;;3.33;3.33;;;;;20.49;68.46;102185.59;5119481;27;45438;-70
2022/10/18 10:41:54;;;;;;;;;5.67;5.67;;;;;20.53;68.43;102172.94;5110501;27;45475;-70
2022/10/18 10:44:24;;;;;;;;;5.33;4.00;;;;;20.62;67.84;102187.50;5094408;27;45422;-70
2022/10/18 10:46:50;;;;;;;;;6.00;5.67;;;;;20.64;67.79;102186.63;5114929;27;45574;-70
2022/10/18 10:49:21;;;;;;;;;6.00;6.00;;;;;20.66;67.71;102183.03;5097050;27;45521;-70
2022/10/18 10:52:01;;;;;;;;;7.00;4.67;;;;;20.57;67.50;102169.34;5111944;27;45600;-70
2022/10/18 10:54:34;;;;;;;;;6.67;6.00;;;;;20.65;67.65;102183.03;5107920;27;45517;-69
2022/10/18 10:57:10;;;;;;;;;6.00;5.33;;;;;20.70;67.76;102184.84;5107351;27;45542;-70
2022/10/18 10:59:43;;;;;;;;;9.33;8.00;;;;;20.77;67.21;102184.03;5109286;27;45487;-69
2022/10/18 11:02:17;;;;;;;;;7.67;6.00;;;;;20.82;67.04;102178.59;5099573;27;46200;-70
2022/10/18 11:04:45;;;;;;;;;10.33;4.00;;;;;20.89;66.97;102168.72;5110301;27;45362;-69
2022/10/18 11:07:32;;;;;;;;;4.67;4.00;;;;;20.60;66.18;102110.53;5113454;27;45387;-69
2022/10/18 11:10:09;;;;;;;;;5.00;4.00;;;;;21.02;65.80;102173.31;5112150;27;45707;-70
2022/10/18 11:12:42;;;;;;;;;6.67;4.67;;;;;21.10;66.01;102171.56;5119028;27;45653;-70
2022/10/18 11:15:13;;;;;;;;;6.33;5.00;;;;;21.18;65.35;102179.72;5114733;27;45473;-70
2022/10/18 11:17:39;;;;;;;;;5.00;3.00;;;;;21.21;64.60;102174.31;5109028;27;45304;-70
2022/10/18 11:20:12;;;;;;;;;3.00;1.00;;;;;21.19;63.65;102169.78;5107952;27;45565;-70
2022/10/18 11:22:55;;;;;;;;;3.33;2.00;;;;;21.18;63.89;102166.13;5110191;27;45760;-69
2022/10/18 11:25:26;;;;;;;;;1.33;1.33;;;;;21.20;63.87;102164.34;5113870;27;45519;-70
2022/10/18 11:28:25;;;;;;;;;4.00;3.00;;;;;21.24;64.06;102158.03;5098612;27;45623;-70